Time;durP1;ratioP1;P1;durP2;ratioP2;P2;SDS_P1;SDS_P2;PMS_P1;PMS_P2;Temp;Humidity;BMP_temperature;BMP_pressure;BME280_temperature;BME280_humidity;BME280_pressure;Samples;Min_cycle;Max_cycle;Signal;HPM_P1;HPM_P2
2022/06/06 00:01:41;;;;;;;4.03;3.50;;;;;;;;;;4984562;28;20034;-69
2022/06/06 00:04:06;;;;;;;3.80;3.50;;;;;;;;;;4989498;28;20104;-67
2022/06/06 00:06:32;;;;;;;3.33;3.03;;;;;;;;;;4980736;28;20042;-69
2022/06/06 00:08:57;;;;;;;3.50;3.30;;;;;;;;;;4994396;28;20417;-65
2022/06/06 00:11:23;;;;;;;3.70;3.40;;;;;;;;;;4994513;28;20053;-66
2022/06/06 00:13:48;;;;;;;3.28;2.97;;;;;;;;;;4994961;28;20038;-66
2022/06/06 00:16:14;;;;;;;4.53;3.40;;;;;;;;;;4995773;28;20121;-69
2022/06/06 00:18:39;;;;;;;4.20;3.55;;;;;;;;;;4995963;28;20121;-65
2022/06/06 00:21:06;;;;;;;4.90;3.63;;;;;;;;;;4995825;28;20109;-66
2022/06/06 00:23:31;;;;;;;3.80;3.50;;;;;;;;;;4997306;28;20031;-65
2022/06/06 00:25:57;;;;;;;4.53;3.70;;;;;;;;;;4995959;28;20415;-65
2022/06/06 00:28:23;;;;;;;4.07;3.60;;;;;;;;;;4996059;28;20784;-66
2022/06/06 00:30:48;;;;;;;4.47;3.30;;;;;;;;;;4991361;28;20534;-65
2022/06/06 00:36:01;;;;;;;3.78;3.47;;;;;;;;;;4995381;28;20453;-65
2022/06/06 00:38:26;;;;;;;7.77;3.33;;;;;;;;;;4996670;28;20374;-65
2022/06/06 00:40:52;;;;;;;4.07;3.42;;;;;;;;;;4996024;28;20279;-67
2022/06/06 00:43:18;;;;;;;4.38;3.97;;;;;;;;;;4995637;28;20038;-65
2022/06/06 00:45:44;;;;;;;4.72;4.22;;;;;;;;;;4995604;28;20425;-69
2022/06/06 00:48:16;;;;;;;5.57;3.75;;;;;;;;;;4996594;28;20022;-65
2022/06/06 00:51:00;;;;;;;5.07;3.58;;;;;;;;;;4978040;28;20458;-65
2022/06/06 00:53:38;;;;;;;6.50;4.30;;;;;;;;;;4973366;28;20030;-68
2022/06/06 00:56:18;;;;;;;5.45;4.05;;;;;;;;;;4987630;28;20042;-66
2022/06/06 00:58:44;;;;;;;7.28;5.03;;;;;;;;;;4994836;28;20057;-68
2022/06/06 01:01:10;;;;;;;10.43;5.10;;;;;;;;;;4996914;28;20037;-67
2022/06/06 01:03:38;;;;;;;10.68;5.22;;;;;;;;;;4986545;28;20098;-67
2022/06/06 01:06:04;;;;;;;6.55;5.10;;;;;;;;;;4980783;28;20131;-66
2022/06/06 01:08:30;;;;;;;5.53;4.90;;;;;;;;;;4979197;28;20030;-67
2022/06/06 01:10:56;;;;;;;6.80;4.70;;;;;;;;;;4979725;28;20126;-64
2022/06/06 01:13:25;;;;;;;5.75;4.68;;;;;;;;;;4977715;28;20109;-65
2022/06/06 01:16:04;;;;;;;6.45;4.45;;;;;;;;;;4980517;28;20034;-66
2022/06/06 01:18:32;;;;;;;9.73;4.85;;;;;;;;;;4975881;28;20037;-66
2022/06/06 01:20:57;;;;;;;9.82;4.53;;;;;;;;;;4959627;28;20034;-68
2022/06/06 01:23:39;;;;;;;6.05;4.95;;;;;;;;;;4979044;28;20341;-67
2022/06/06 01:26:05;;;;;;;6.60;4.32;;;;;;;;;;4978965;28;20041;-69
2022/06/06 01:28:36;;;;;;;8.52;5.55;;;;;;;;;;4995429;28;20731;-68
2022/06/06 01:31:05;;;;;;;8.77;4.95;;;;;;;;;;4995195;28;20037;-67
2022/06/06 01:33:45;;;;;;;5.25;4.30;;;;;;;;;;4987234;28;20026;-67
2022/06/06 01:36:11;;;;;;;6.30;5.07;;;;;;;;;;4989448;28;20029;-66
2022/06/06 01:38:37;;;;;;;5.88;5.15;;;;;;;;;;4996503;28;20030;-67
2022/06/06 01:41:08;;;;;;;6.95;3.97;;;;;;;;;;4994664;28;20037;-68
2022/06/06 01:43:37;;;;;;;11.70;5.20;;;;;;;;;;4995631;28;20040;-68
2022/06/06 01:46:05;;;;;;;6.45;4.50;;;;;;;;;;4991269;28;20018;-67
2022/06/06 01:48:33;;;;;;;4.07;3.63;;;;;;;;;;4982815;28;20416;-68
2022/06/06 01:50:58;;;;;;;5.82;4.50;;;;;;;;;;4995264;28;20248;-66
2022/06/06 01:53:25;;;;;;;4.68;4.10;;;;;;;;;;4994278;28;20472;-66
2022/06/06 01:55:51;;;;;;;6.50;5.00;;;;;;;;;;4994135;28;20021;-66
2022/06/06 01:58:20;;;;;;;5.78;4.32;;;;;;;;;;4993536;28;20481;-67
2022/06/06 02:00:45;;;;;;;5.35;4.40;;;;;;;;;;4994369;28;20089;-67
2022/06/06 02:03:11;;;;;;;5.10;4.38;;;;;;;;;;4994214;28;20052;-67
2022/06/06 02:05:36;;;;;;;5.18;4.38;;;;;;;;;;4993760;28;20109;-67
2022/06/06 02:08:02;;;;;;;4.60;4.13;;;;;;;;;;4995207;28;20054;-68
2022/06/06 02:10:27;;;;;;;5.07;4.05;;;;;;;;;;4994262;28;20066;-67
2022/06/06 02:12:53;;;;;;;5.85;4.75;;;;;;;;;;4991523;28;20038;-67
2022/06/06 02:15:19;;;;;;;4.65;4.15;;;;;;;;;;4979966;28;20017;-67
2022/06/06 02:17:45;;;;;;;6.47;4.28;;;;;;;;;;4994898;28;20042;-68
2022/06/06 02:20:11;;;;;;;4.75;4.03;;;;;;;;;;4991641;28;20088;-69
2022/06/06 02:22:37;;;;;;;6.60;4.70;;;;;;;;;;4992412;28;20350;-68
2022/06/06 02:25:03;;;;;;;5.53;4.07;;;;;;;;;;4992374;28;20025;-68
2022/06/06 02:27:28;;;;;;;9.60;4.20;;;;;;;;;;4975349;28;20085;-69
2022/06/06 02:29:54;;;;;;;5.30;4.80;;;;;;;;;;4989986;28;20034;-69
2022/06/06 02:32:19;;;;;;;4.80;4.20;;;;;;;;;;4988773;28;20029;-71
2022/06/06 02:34:45;;;;;;;6.40;4.47;;;;;;;;;;4992307;28;20421;-67
2022/06/06 02:37:10;;;;;;;4.10;3.70;;;;;;;;;;4995185;28;20040;-68
2022/06/06 02:39:35;;;;;;;5.20;4.70;;;;;;;;;;4991815;28;20512;-70
2022/06/06 02:42:00;;;;;;;4.10;3.70;;;;;;;;;;4993031;28;20041;-69
2022/06/06 02:44:26;;;;;;;5.43;4.40;;;;;;;;;;4992213;28;20037;-68
2022/06/06 02:46:52;;;;;;;6.18;3.67;;;;;;;;;;4989718;28;20030;-68
2022/06/06 02:49:17;;;;;;;5.30;3.92;;;;;;;;;;4992784;28;20030;-65
2022/06/06 02:51:43;;;;;;;4.45;4.03;;;;;;;;;;4980340;28;20034;-66
2022/06/06 02:54:08;;;;;;;6.13;4.03;;;;;;;;;;4985852;28;20073;-68
2022/06/06 02:56:34;;;;;;;6.15;4.35;;;;;;;;;;4985069;28;20050;-68
2022/06/06 02:59:02;;;;;;;4.70;4.30;;;;;;;;;;4975193;28;20449;-71
2022/06/06 03:01:28;;;;;;;6.72;4.03;;;;;;;;;;4986313;28;20029;-67
2022/06/06 03:03:53;;;;;;;5.40;4.90;;;;;;;;;;4993464;28;20956;-66
2022/06/06 03:06:26;;;;;;;4.80;4.13;;;;;;;;;;4989152;28;20026;-68
2022/06/06 03:09:00;;;;;;;5.13;4.32;;;;;;;;;;4983144;28;20446;-67
2022/06/06 03:11:25;;;;;;;5.88;4.22;;;;;;;;;;4981460;28;20030;-67
2022/06/06 03:13:59;;;;;;;5.35;3.97;;;;;;;;;;4995457;28;20033;-68
2022/06/06 03:22:57;;;;;;;5.05;4.35;;;;;;;;;;4992446;28;20135;-71
2022/06/06 03:25:42;;;;;;;5.25;4.15;;;;;;;;;;4997074;28;20022;-66
2022/06/06 03:28:07;;;;;;;4.70;4.07;;;;;;;;;;4996501;28;20091;-66
2022/06/06 03:31:02;;;;;;;4.35;3.95;;;;;;;;;;4995156;28;20025;-67
2022/06/06 03:33:33;;;;;;;4.28;3.88;;;;;;;;;;4985495;28;20026;-68
2022/06/06 03:36:23;;;;;;;5.22;4.72;;;;;;;;;;4971486;28;20034;-69
2022/06/06 03:39:02;;;;;;;4.32;3.92;;;;;;;;;;4987497;28;20033;-73
2022/06/06 03:41:28;;;;;;;10.13;5.05;;;;;;;;;;4996858;28;20021;-67
2022/06/06 03:43:57;;;;;;;5.25;4.47;;;;;;;;;;4997650;28;20034;-66
2022/06/06 03:46:29;;;;;;;5.53;4.18;;;;;;;;;;4995200;28;20034;-68
2022/06/06 03:49:10;;;;;;;9.00;4.80;;;;;;;;;;4981757;28;20136;-67
2022/06/06 03:51:45;;;;;;;5.57;3.92;;;;;;;;;;4985487;28;20030;-70
2022/06/06 03:54:10;;;;;;;4.55;4.18;;;;;;;;;;4976602;28;20109;-69
2022/06/06 03:56:54;;;;;;;4.82;4.40;;;;;;;;;;4983672;28;20155;-67
2022/06/06 03:59:21;;;;;;;5.63;4.50;;;;;;;;;;4995851;28;20066;-70
2022/06/06 04:01:48;;;;;;;6.00;4.47;;;;;;;;;;4994261;28;20458;-69
2022/06/06 04:04:14;;;;;;;4.82;4.18;;;;;;;;;;4995982;28;20030;-68
2022/06/06 04:06:39;;;;;;;7.10;4.40;;;;;;;;;;4996127;28;20026;-67
2022/06/06 04:09:05;;;;;;;5.18;4.68;;;;;;;;;;4996301;28;20034;-72
2022/06/06 04:11:30;;;;;;;5.03;4.55;;;;;;;;;;4980423;28;20058;-68
2022/06/06 04:14:14;;;;;;;5.72;4.40;;;;;;;;;;4984830;28;20113;-71
2022/06/06 04:16:39;;;;;;;5.60;4.65;;;;;;;;;;4978930;28;20022;-66
2022/06/06 04:19:13;;;;;;;5.57;4.22;;;;;;;;;;4983593;28;20366;-67
2022/06/06 04:21:39;;;;;;;5.63;4.43;;;;;;;;;;4979729;28;20438;-66
2022/06/06 04:24:13;;;;;;;6.43;4.95;;;;;;;;;;4978305;28;20101;-67
2022/06/06 04:26:52;;;;;;;6.38;4.90;;;;;;;;;;4995583;28;20026;-70
2022/06/06 04:29:23;;;;;;;5.45;4.82;;;;;;;;;;4996283;28;20118;-66
2022/06/06 04:31:57;;;;;;;5.88;4.70;;;;;;;;;;4994515;28;20041;-67
2022/06/06 04:34:31;;;;;;;4.25;3.85;;;;;;;;;;4977564;28;20051;-71
2022/06/06 04:37:00;;;;;;;5.13;3.80;;;;;;;;;;4983553;28;20033;-67
2022/06/06 04:39:25;;;;;;;5.28;4.35;;;;;;;;;;4980007;28;20085;-71
2022/06/06 04:41:50;;;;;;;4.60;4.20;;;;;;;;;;4983680;28;20652;-69
2022/06/06 04:44:22;;;;;;;4.30;3.90;;;;;;;;;;4994470;28;20449;-69
2022/06/06 04:46:55;;;;;;;5.78;4.22;;;;;;;;;;4990034;28;20053;-66
2022/06/06 04:49:21;;;;;;;4.90;4.15;;;;;;;;;;4969748;28;20140;-70
2022/06/06 04:51:47;;;;;;;7.13;3.42;;;;;;;;;;4993349;28;20029;-67
2022/06/06 04:54:17;;;;;;;4.35;3.95;;;;;;;;;;4994295;28;20041;-70
2022/06/06 04:56:43;;;;;;;3.90;3.45;;;;;;;;;;4995042;28;20038;-65
2022/06/06 04:59:10;;;;;;;7.72;3.88;;;;;;;;;;4995193;28;20365;-66
2022/06/06 05:01:36;;;;;;;5.35;4.07;;;;;;;;;;4994404;28;20670;-66
2022/06/06 05:04:01;;;;;;;4.72;4.32;;;;;;;;;;4995946;28;20092;-65
2022/06/06 05:06:26;;;;;;;5.88;3.65;;;;;;;;;;4997329;28;20034;-65
2022/06/06 05:09:14;;;;;;;4.00;3.55;;;;;;;;;;4995966;28;20029;-70
2022/06/06 05:12:03;;;;;;;4.65;3.50;;;;;;;;;;4994281;28;21166;-65
2022/06/06 05:14:47;;;;;;;3.28;3.00;;;;;;;;;;4971831;28;20074;-66
2022/06/06 05:17:16;;;;;;;4.13;3.50;;;;;;;;;;4985909;28;20053;-67
2022/06/06 05:19:41;;;;;;;6.28;2.92;;;;;;;;;;4987525;28;20446;-67
2022/06/06 05:22:15;;;;;;;3.50;3.20;;;;;;;;;;4975670;28;20097;-66
2022/06/06 05:24:44;;;;;;;5.22;2.75;;;;;;;;;;4994770;28;20022;-65
2022/06/06 05:27:20;;;;;;;11.83;3.47;;;;;;;;;;4994597;28;20394;-67
2022/06/06 05:29:49;;;;;;;6.43;3.50;;;;;;;;;;4995949;28;20118;-69
2022/06/06 05:32:32;;;;;;;4.67;3.70;;;;;;;;;;4994314;28;20041;-68
2022/06/06 05:35:03;;;;;;;6.80;4.45;;;;;;;;;;4996408;28;20108;-70
2022/06/06 05:37:47;;;;;;;5.82;4.10;;;;;;;;;;4996103;28;20017;-66
2022/06/06 05:40:31;;;;;;;4.15;3.63;;;;;;;;;;4994617;28;20033;-69
2022/06/06 05:42:57;;;;;;;5.72;3.78;;;;;;;;;;4995820;28;20127;-66
2022/06/06 05:45:22;;;;;;;4.78;3.75;;;;;;;;;;4983445;28;20141;-66
2022/06/06 05:47:51;;;;;;;4.00;3.55;;;;;;;;;;4984033;28;20109;-67
2022/06/06 05:50:19;;;;;;;3.88;3.30;;;;;;;;;;4983634;28;20036;-67
2022/06/06 05:52:55;;;;;;;4.50;3.95;;;;;;;;;;4988345;28;20033;-71
2022/06/06 05:55:32;;;;;;;4.85;4.15;;;;;;;;;;4990980;28;20030;-66
2022/06/06 05:58:06;;;;;;;4.57;3.65;;;;;;;;;;4963434;28;20113;-66
2022/06/06 06:00:43;;;;;;;4.38;3.83;;;;;;;;;;4963212;28;20038;-67
2022/06/06 06:03:17;;;;;;;6.05;4.10;;;;;;;;;;4967590;28;20034;-71
2022/06/06 06:05:52;;;;;;;4.90;4.45;;;;;;;;;;4964327;28;20024;-67
2022/06/06 06:08:17;;;;;;;6.30;4.80;;;;;;;;;;4966163;28;20030;-70
2022/06/06 06:10:51;;;;;;;6.68;5.28;;;;;;;;;;4961394;28;20300;-71
2022/06/06 06:13:16;;;;;;;5.78;5.15;;;;;;;;;;4962336;28;20138;-67
2022/06/06 06:15:43;;;;;;;6.20;4.82;;;;;;;;;;4950399;28;20121;-68
2022/06/06 06:18:13;;;;;;;6.45;5.55;;;;;;;;;;4965687;28;20035;-70
2022/06/06 06:20:41;;;;;;;6.82;6.13;;;;;;;;;;4962789;28;20041;-70
2022/06/06 06:23:08;;;;;;;6.55;5.85;;;;;;;;;;4961458;28;20030;-68
2022/06/06 06:25:34;;;;;;;8.98;7.00;;;;;;;;;;4961803;28;20084;-67
2022/06/06 06:28:05;;;;;;;8.10;7.30;;;;;;;;;;4963973;28;20038;-68
2022/06/06 06:30:34;;;;;;;9.20;6.88;;;;;;;;;;4966115;28;20034;-66
2022/06/06 06:33:06;;;;;;;9.00;6.88;;;;;;;;;;4962467;28;20042;-66
2022/06/06 06:35:34;;;;;;;8.93;6.72;;;;;;;;;;4966621;28;20030;-65
2022/06/06 06:38:18;;;;;;;9.70;7.53;;;;;;;;;;4967221;28;20034;-67
2022/06/06 06:40:48;;;;;;;22.65;7.88;;;;;;;;;;4963558;28;20118;-67
2022/06/06 06:43:37;;;;;;;8.27;7.47;;;;;;;;;;4962363;28;20117;-66
2022/06/06 06:46:07;;;;;;;9.15;7.68;;;;;;;;;;4957507;28;20034;-69
2022/06/06 06:48:36;;;;;;;9.10;8.20;;;;;;;;;;4961632;28;20054;-73
2022/06/06 06:51:09;;;;;;;10.73;8.40;;;;;;;;;;4963073;28;20037;-66
2022/06/06 06:53:40;;;;;;;9.57;8.60;;;;;;;;;;4961861;28;20034;-68
2022/06/06 06:56:12;;;;;;;10.25;8.95;;;;;;;;;;4970740;28;20050;-67
2022/06/06 06:58:40;;;;;;;10.52;9.45;;;;;;;;;;4990858;28;20041;-68
2022/06/06 07:01:07;;;;;;;11.73;8.82;;;;;;;;;;4993967;28;20034;-68
2022/06/06 07:09:31;;;;;;;10.82;8.02;;;;;;;;;;4978099;28;20765;-67
2022/06/06 07:11:59;;;;;;;10.15;9.15;;;;;;;;;;4988109;28;20040;-68
2022/06/06 07:14:51;;;;;;;11.10;9.50;;;;;;;;;;4987705;28;20022;-71
2022/06/06 07:17:18;;;;;;;14.18;10.48;;;;;;;;;;4969814;28;20258;-68
2022/06/06 07:19:48;;;;;;;11.40;10.05;;;;;;;;;;4981908;28;20034;-69
2022/06/06 07:22:17;;;;;;;12.65;10.18;;;;;;;;;;4975673;28;20030;-70
2022/06/06 07:24:43;;;;;;;;;;;;;;;;;;4970456;28;20030;-70
2022/06/06 07:27:09;;;;;;;9.97;8.93;;;;;;;;;;4972851;28;19968;-70
2022/06/06 07:29:35;;;;;;;11.20;9.07;;;;;;;;;;4985644;28;20404;-67
2022/06/06 07:32:13;;;;;;;11.13;8.93;;;;;;;;;;4978945;28;20133;-67
2022/06/06 07:34:44;;;;;;;9.47;8.47;;;;;;;;;;4972490;28;20490;-66
2022/06/06 07:37:22;;;;;;;9.15;7.72;;;;;;;;;;4990435;28;20160;-68
2022/06/06 07:40:05;;;;;;;10.35;8.52;;;;;;;;;;4990209;28;20042;-67
2022/06/06 07:42:49;;;;;;;8.57;7.60;;;;;;;;;;4992653;28;20075;-67
2022/06/06 07:45:20;;;;;;;9.45;8.00;;;;;;;;;;4988284;28;20049;-67
2022/06/06 07:48:04;;;;;;;9.98;8.50;;;;;;;;;;4975928;28;20037;-68
2022/06/06 07:50:32;;;;;;;11.02;7.78;;;;;;;;;;4990055;28;20030;-69
2022/06/06 07:52:57;;;;;;;10.65;8.88;;;;;;;;;;4995240;28;20029;-69
2022/06/06 07:55:28;;;;;;;8.82;7.97;;;;;;;;;;4986482;28;20032;-67
2022/06/06 07:58:08;;;;;;;7.70;6.90;;;;;;;;;;4981090;28;20113;-68
2022/06/06 08:00:33;;;;;;;8.90;7.97;;;;;;;;;;5002094;28;20030;-70
2022/06/06 08:02:58;;;;;;;8.88;7.97;;;;;;;;;;4997231;28;20084;-69
2022/06/06 08:05:43;;;;;;;9.52;7.22;;;;;;;;;;4998172;28;20107;-71
2022/06/06 08:08:11;;;;;;;8.73;7.43;;;;;;;;;;4997496;28;20088;-68
2022/06/06 08:10:40;;;;;;;8.82;7.38;;;;;;;;;;4997316;28;20113;-70
2022/06/06 08:13:24;;;;;;;8.75;6.43;;;;;;;;;;4977998;28;20035;-70
2022/06/06 08:15:50;;;;;;;7.18;6.25;;;;;;;;;;4993870;28;20045;-67
2022/06/06 08:18:32;;;;;;;7.28;6.57;;;;;;;;;;4982254;28;20038;-67
2022/06/06 08:21:02;;;;;;;7.18;5.43;;;;;;;;;;4993519;28;20136;-69
2022/06/06 08:23:32;;;;;;;5.43;4.93;;;;;;;;;;4994013;28;20049;-69
2022/06/06 08:25:59;;;;;;;5.80;5.22;;;;;;;;;;4991248;28;20022;-68
2022/06/06 08:28:25;;;;;;;6.00;5.03;;;;;;;;;;4992180;28;20064;-67
2022/06/06 08:30:51;;;;;;;6.28;5.50;;;;;;;;;;4993952;28;20034;-67
2022/06/06 08:33:16;;;;;;;5.07;4.57;;;;;;;;;;4992382;28;20083;-67
2022/06/06 08:36:03;;;;;;;5.55;4.85;;;;;;;;;;4996191;28;20021;-72
2022/06/06 08:38:28;;;;;;;5.70;4.88;;;;;;;;;;4994718;28;20030;-68
2022/06/06 08:40:59;;;;;;;5.10;4.38;;;;;;;;;;4995288;28;20029;-68
2022/06/06 08:43:34;;;;;;;5.43;4.70;;;;;;;;;;4990426;28;20347;-68
2022/06/06 08:46:07;;;;;;;4.68;3.75;;;;;;;;;;4980822;28;20061;-73
2022/06/06 08:48:36;;;;;;;4.68;3.97;;;;;;;;;;4986869;28;20026;-68
2022/06/06 08:51:27;;;;;;;3.83;3.42;;;;;;;;;;4988239;28;20366;-69
2022/06/06 08:54:11;;;;;;;3.97;3.58;;;;;;;;;;4952977;28;20042;-68
2022/06/06 08:56:39;;;;;;;4.00;3.60;;;;;;;;;;4975312;28;20038;-74
2022/06/06 08:59:12;;;;;;;3.28;2.88;;;;;;;;;;4991040;28;20158;-68
2022/06/06 09:01:59;;;;;;;4.53;4.03;;;;;;;;;;4990338;28;20164;-69
2022/06/06 09:04:31;;;;;;;3.72;3.20;;;;;;;;;;4974486;28;20112;-70
2022/06/06 09:07:15;;;;;;;3.50;3.20;;;;;;;;;;4971550;28;20030;-69
2022/06/06 09:10:13;;;;;;;6.00;3.45;;;;;;;;;;4970385;28;20014;-74
2022/06/06 09:12:57;;;;;;;4.03;3.72;;;;;;;;;;4944399;28;20138;-70
2022/06/06 09:15:42;;;;;;;3.80;3.50;;;;;;;;;;4939524;28;20034;-70
2022/06/06 09:18:07;;;;;;;3.90;3.13;;;;;;;;;;4969583;28;20411;-69
2022/06/06 09:20:38;;;;;;;4.18;3.80;;;;;;;;;;4971605;28;20105;-69
2022/06/06 09:23:22;;;;;;;3.65;3.30;;;;;;;;;;4972052;28;20065;-73
2022/06/06 09:26:01;;;;;;;3.40;3.10;;;;;;;;;;4973581;28;20141;-71
2022/06/06 09:28:42;;;;;;;4.47;3.15;;;;;;;;;;4974723;28;20096;-70
2022/06/06 09:31:26;;;;;;;3.08;2.80;;;;;;;;;;4975072;28;20450;-71
2022/06/06 09:33:58;;;;;;;3.35;3.05;;;;;;;;;;4972092;28;20113;-70
2022/06/06 09:36:38;;;;;;;3.97;3.58;;;;;;;;;;4973230;28;20390;-70
2022/06/06 09:39:08;;;;;;;3.38;3.08;;;;;;;;;;4970762;28;20026;-70
2022/06/06 09:41:33;;;;;;;4.60;3.75;;;;;;;;;;4971439;28;20033;-70
2022/06/06 09:44:11;;;;;;;4.85;3.95;;;;;;;;;;4971753;28;20026;-74
2022/06/06 09:46:55;;;;;;;4.70;3.88;;;;;;;;;;4972483;28;20026;-71
2022/06/06 09:49:29;;;;;;;4.53;4.10;;;;;;;;;;4972866;28;20041;-71
2022/06/06 09:51:57;;;;;;;4.28;3.92;;;;;;;;;;4989006;28;20065;-69
2022/06/06 10:00:40;;;;;;;6.38;4.82;;;;;;;;;;4979460;28;20025;-69
2022/06/06 10:03:14;;;;;;;5.00;4.13;;;;;;;;;;4973347;28;20446;-70
2022/06/06 10:06:00;;;;;;;4.55;4.15;;;;;;;;;;4974114;28;20032;-67
2022/06/06 10:08:31;;;;;;;3.83;3.50;;;;;;;;;;4974232;28;20033;-66
2022/06/06 10:10:57;;;;;;;4.00;3.70;;;;;;;;;;4973464;28;20126;-68
2022/06/06 10:13:34;;;;;;;5.22;4.30;;;;;;;;;;4992600;28;20051;-69
2022/06/06 10:16:06;;;;;;;5.35;4.22;;;;;;;;;;4975493;28;20369;-70
2022/06/06 10:18:35;;;;;;;6.40;4.20;;;;;;;;;;4972027;28;20040;-70
2022/06/06 10:21:01;;;;;;;4.27;3.87;;;;;;;;;;4971654;28;20108;-70
2022/06/06 10:23:26;;;;;;;4.07;3.70;;;;;;;;;;4975046;28;20536;-74
2022/06/06 10:25:52;;;;;;;4.13;3.58;;;;;;;;;;4982846;28;20065;-72
2022/06/06 10:28:27;;;;;;;4.50;4.10;;;;;;;;;;4993625;28;20026;-68
2022/06/06 10:31:22;;;;;;;4.20;3.80;;;;;;;;;;4993136;28;20105;-68
2022/06/06 10:34:01;;;;;;;3.95;3.55;;;;;;;;;;4980989;28;20041;-69
2022/06/06 10:36:46;;;;;;;4.45;3.95;;;;;;;;;;4994079;28;20453;-69
2022/06/06 10:39:21;;;;;;;4.15;3.78;;;;;;;;;;4993937;28;20068;-69
2022/06/06 10:41:55;;;;;;;4.32;3.92;;;;;;;;;;4993901;28;20109;-70
2022/06/06 10:44:35;;;;;;;4.28;3.88;;;;;;;;;;4977615;28;20034;-73
2022/06/06 10:47:14;;;;;;;4.47;4.05;;;;;;;;;;4995178;28;20976;-72
2022/06/06 10:49:40;;;;;;;5.68;4.50;;;;;;;;;;4992886;28;20025;-68
2022/06/06 10:52:20;;;;;;;4.32;3.85;;;;;;;;;;4991665;28;20453;-70
2022/06/06 10:55:04;;;;;;;4.97;4.47;;;;;;;;;;4989716;28;20023;-67
2022/06/06 10:57:35;;;;;;;7.03;4.70;;;;;;;;;;4970373;28;20136;-67
2022/06/06 11:00:06;;;;;;;4.82;3.80;;;;;;;;;;4975404;28;20708;-67
2022/06/06 11:02:31;;;;;;;4.28;3.85;;;;;;;;;;4977811;28;20038;-69
2022/06/06 11:04:59;;;;;;;4.90;4.22;;;;;;;;;;4970951;28;20033;-68
2022/06/06 11:07:34;;;;;;;4.68;4.28;;;;;;;;;;4974683;28;20037;-69
2022/06/06 11:10:00;;;;;;;4.13;3.80;;;;;;;;;;4980200;28;20014;-68
2022/06/06 11:12:28;;;;;;;4.78;4.25;;;;;;;;;;4993655;28;20450;-68
2022/06/06 11:14:54;;;;;;;4.82;4.32;;;;;;;;;;4993376;28;20030;-68
2022/06/06 11:17:22;;;;;;;4.45;4.05;;;;;;;;;;4993083;28;20096;-69
2022/06/06 11:19:47;;;;;;;6.60;4.40;;;;;;;;;;4990397;28;20038;-68
2022/06/06 11:22:27;;;;;;;4.50;4.10;;;;;;;;;;4994010;28;20088;-68
2022/06/06 11:25:01;;;;;;;3.80;3.40;;;;;;;;;;4992669;28;20022;-70
2022/06/06 11:27:35;;;;;;;5.57;3.53;;;;;;;;;;4992929;28;20034;-68
2022/06/06 11:30:01;;;;;;;4.32;3.55;;;;;;;;;;4992927;28;20125;-67
2022/06/06 11:32:31;;;;;;;3.80;3.50;;;;;;;;;;4996740;28;20168;-68
2022/06/06 11:35:04;;;;;;;4.18;3.78;;;;;;;;;;4998180;28;20341;-68
2022/06/06 11:37:35;;;;;;;4.32;3.92;;;;;;;;;;4996537;28;20732;-69
2022/06/06 11:40:10;;;;;;;4.07;3.67;;;;;;;;;;4994406;28;20034;-68
2022/06/06 11:42:53;;;;;;;3.83;3.50;;;;;;;;;;4996283;28;20446;-67
2022/06/06 11:45:24;;;;;;;4.72;3.88;;;;;;;;;;4996197;28;20033;-68
2022/06/06 11:48:15;;;;;;;4.35;3.95;;;;;;;;;;4996430;28;20092;-69
2022/06/06 11:50:47;;;;;;;4.05;3.65;;;;;;;;;;4996611;28;20029;-68
2022/06/06 11:53:12;;;;;;;5.50;4.55;;;;;;;;;;4995554;28;20041;-67
2022/06/06 11:55:50;;;;;;;4.75;4.20;;;;;;;;;;4996074;28;20019;-67
2022/06/06 11:58:18;;;;;;;4.65;4.25;;;;;;;;;;4997000;28;20127;-67
2022/06/06 12:00:49;;;;;;;5.30;4.32;;;;;;;;;;4995629;28;20030;-68
2022/06/06 12:03:33;;;;;;;5.28;4.78;;;;;;;;;;4995549;28;20030;-69
2022/06/06 12:06:17;;;;;;;5.30;4.80;;;;;;;;;;4995853;28;20060;-68
2022/06/06 12:08:45;;;;;;;5.53;4.53;;;;;;;;;;4995143;28;20065;-67
2022/06/06 12:11:10;;;;;;;12.35;4.88;;;;;;;;;;4996218;28;20030;-68
2022/06/06 12:13:48;;;;;;;5.28;4.82;;;;;;;;;;4996785;28;20045;-67
2022/06/06 12:16:39;;;;;;;5.53;4.57;;;;;;;;;;4995070;28;20041;-67
2022/06/06 12:19:13;;;;;;;4.60;4.15;;;;;;;;;;4996091;28;20497;-68
2022/06/06 12:21:50;;;;;;;5.43;4.93;;;;;;;;;;4994471;28;20038;-68
2022/06/06 12:24:34;;;;;;;14.35;8.55;;;;;;;;;;4996162;28;20070;-67
2022/06/06 12:27:15;;;;;;;15.90;10.98;;;;;;;;;;4995074;28;20080;-67
2022/06/06 12:30:00;;;;;;;135.00;48.90;;;;;;;;;;4995627;28;20115;-68
2022/06/06 12:32:44;;;;;;;125.75;51.97;;;;;;;;;;4995072;28;20042;-67
2022/06/06 12:35:22;;;;;;;63.13;30.50;;;;;;;;;;4994025;28;20028;-69
2022/06/06 12:37:51;;;;;;;21.60;14.18;;;;;;;;;;4996617;28;20041;-69
2022/06/06 12:40:25;;;;;;;12.27;8.73;;;;;;;;;;4992998;28;20034;-67
2022/06/06 12:42:54;;;;;;;9.50;7.45;;;;;;;;;;4992975;28;20302;-68
2022/06/06 12:45:34;;;;;;;26.47;17.50;;;;;;;;;;4995532;28;20408;-68
2022/06/06 12:48:00;;;;;;;19.45;12.20;;;;;;;;;;4996043;28;20268;-70
2022/06/06 12:50:29;;;;;;;9.55;7.85;;;;;;;;;;4995583;28;20827;-67
2022/06/06 12:52:54;;;;;;;;;;;;;;;;;;4996568;28;20120;-67
2022/06/06 12:57:50;;;;;;;9.75;6.93;;;;;;;;;;4995775;28;20100;-68
2022/06/06 13:00:20;;;;;;;8.00;6.43;;;;;;;;;;4996397;28;20417;-69
2022/06/06 13:03:08;;;;;;;6.78;5.70;;;;;;;;;;4986657;28;20576;-69
2022/06/06 13:05:37;;;;;;;9.73;4.72;;;;;;;;;;4990598;28;20026;-69
2022/06/06 13:08:11;;;;;;;4.40;4.00;;;;;;;;;;4995459;28;20061;-68
2022/06/06 13:10:55;;;;;;;5.07;4.60;;;;;;;;;;4993859;28;20069;-69
2022/06/06 13:13:20;;;;;;;4.70;4.22;;;;;;;;;;4995872;28;20033;-67
2022/06/06 13:16:04;;;;;;;4.90;4.43;;;;;;;;;;4996061;28;20322;-68
2022/06/06 13:18:44;;;;;;;5.53;5.00;;;;;;;;;;4994923;28;20087;-68
2022/06/06 13:21:13;;;;;;;6.05;5.07;;;;;;;;;;4994408;28;20029;-68
2022/06/06 13:23:44;;;;;;;5.40;4.50;;;;;;;;;;4990605;28;20096;-69
2022/06/06 13:26:28;;;;;;;6.47;4.63;;;;;;;;;;4981971;28;20439;-67
2022/06/06 13:28:55;;;;;;;5.25;4.38;;;;;;;;;;4989194;28;20030;-70
2022/06/06 13:31:23;;;;;;;5.18;4.68;;;;;;;;;;4952141;28;20124;-67
2022/06/06 13:34:08;;;;;;;4.97;4.32;;;;;;;;;;4977181;28;20140;-67
2022/06/06 13:36:33;;;;;;;5.82;5.10;;;;;;;;;;4974277;28;20125;-69
2022/06/06 13:39:11;;;;;;;7.70;5.32;;;;;;;;;;4954695;28;20062;-69
2022/06/06 13:41:47;;;;;;;5.65;5.15;;;;;;;;;;4970410;28;20362;-67
2022/06/06 13:44:31;;;;;;;5.50;4.95;;;;;;;;;;4973723;28;20430;-69
2022/06/06 13:47:24;;;;;;;4.90;4.50;;;;;;;;;;4976877;28;20031;-69
2022/06/06 13:49:52;;;;;;;6.00;4.90;;;;;;;;;;4978769;28;20044;-73
2022/06/06 13:52:36;;;;;;;7.90;5.18;;;;;;;;;;4971760;28;20034;-70
2022/06/06 13:55:37;;;;;;;6.00;5.22;;;;;;;;;;4957587;28;20034;-73
2022/06/06 13:58:08;;;;;;;5.88;4.38;;;;;;;;;;4893087;29;20126;-69
2022/06/06 14:00:52;;;;;;;6.07;4.55;;;;;;;;;;4947828;28;20566;-69
2022/06/06 14:03:25;;;;;;;5.97;5.25;;;;;;;;;;4955919;28;20046;-70
2022/06/06 14:05:50;;;;;;;5.10;4.65;;;;;;;;;;4962781;28;20030;-73
2022/06/06 14:08:20;;;;;;;5.18;4.07;;;;;;;;;;4970447;28;20085;-73
2022/06/06 14:10:53;;;;;;;6.78;5.60;;;;;;;;;;4959226;28;20030;-69
2022/06/06 14:13:26;;;;;;;5.13;4.38;;;;;;;;;;4976082;28;20121;-73
2022/06/06 14:15:52;;;;;;;5.13;4.60;;;;;;;;;;4973678;28;20053;-72
2022/06/06 14:18:26;;;;;;;4.45;4.05;;;;;;;;;;4977284;28;20442;-69
2022/06/06 14:20:57;;;;;;;4.80;4.00;;;;;;;;;;4975323;28;20034;-69
2022/06/06 14:23:28;;;;;;;4.82;4.30;;;;;;;;;;4976832;28;20056;-70
2022/06/06 14:25:56;;;;;;;6.63;4.38;;;;;;;;;;4976850;28;20081;-71
2022/06/06 14:28:24;;;;;;;5.60;4.82;;;;;;;;;;4974930;28;20038;-70
2022/06/06 14:30:49;;;;;;;4.93;4.43;;;;;;;;;;4976361;28;20059;-72
2022/06/06 14:33:21;;;;;;;4.30;3.90;;;;;;;;;;4977156;28;20034;-72
2022/06/06 14:35:47;;;;;;;5.18;4.30;;;;;;;;;;4977640;28;20037;-72
2022/06/06 14:38:16;;;;;;;5.55;4.40;;;;;;;;;;4977529;28;20153;-69
2022/06/06 14:40:44;;;;;;;5.20;4.70;;;;;;;;;;4973614;28;20034;-71
2022/06/06 14:43:10;;;;;;;4.87;4.47;;;;;;;;;;4974305;28;20057;-69
2022/06/06 14:45:37;;;;;;;4.55;4.15;;;;;;;;;;4977116;28;20256;-70
2022/06/06 14:48:08;;;;;;;5.43;4.53;;;;;;;;;;4977189;28;20128;-70
2022/06/06 14:50:46;;;;;;;4.88;4.45;;;;;;;;;;4976930;28;20434;-71
2022/06/06 14:53:14;;;;;;;4.53;4.10;;;;;;;;;;4976987;28;21212;-70
2022/06/06 14:55:42;;;;;;;4.28;3.88;;;;;;;;;;4975446;28;20035;-68
2022/06/06 14:58:10;;;;;;;4.43;4.03;;;;;;;;;;4977461;28;20109;-69
2022/06/06 15:00:39;;;;;;;4.90;4.40;;;;;;;;;;4976917;28;20062;-69
2022/06/06 15:03:06;;;;;;;4.80;4.05;;;;;;;;;;4974130;28;20030;-70
2022/06/06 15:05:32;;;;;;;5.68;3.88;;;;;;;;;;4970038;28;20034;-70
2022/06/06 15:08:13;;;;;;;5.22;4.20;;;;;;;;;;4975074;28;20457;-69
2022/06/06 15:10:48;;;;;;;4.75;4.25;;;;;;;;;;4971796;28;20087;-70
2022/06/06 15:13:15;;;;;;;4.10;3.70;;;;;;;;;;4971272;28;20038;-71
2022/06/06 15:15:42;;;;;;;4.43;4.03;;;;;;;;;;4981401;28;20040;-70
2022/06/06 15:18:11;;;;;;;4.70;4.15;;;;;;;;;;4983243;28;20061;-70
2022/06/06 15:20:37;;;;;;;4.32;3.92;;;;;;;;;;4981563;28;20026;-69
2022/06/06 15:23:23;;;;;;;4.70;4.22;;;;;;;;;;4983341;28;20038;-71
2022/06/06 15:25:51;;;;;;;4.55;3.95;;;;;;;;;;4940784;28;20470;-68
2022/06/06 15:28:27;;;;;;;4.55;4.15;;;;;;;;;;4977491;28;20033;-69
2022/06/06 15:30:52;;;;;;;3.50;3.20;;;;;;;;;;4969163;28;20373;-71
2022/06/06 15:33:25;;;;;;;4.20;3.80;;;;;;;;;;4964908;28;20030;-69
2022/06/06 15:36:05;;;;;;;4.32;3.90;;;;;;;;;;4967931;28;20029;-70